• Join FlightAware (Why Join?)
  • Login
  • US Flag 
10:38PM EDT


 

Airport Tracker/Info


-or-


 

Live Flight TrackerFlight Track Log ✈ GJS3710 ✈ 19-Aug-2013 ✈ KORD - KPHL

Flight Track Log - Related Links

Times and Time Zones

All times are in EDT time to prevent confusion due to time zone crossing. See the GJS3710 flight status page for this flight to view local times or setup timezone preferences in your user account.

Time Position Orientation Groundspeed Altitude Reporting Facility
EDT Latitude Longitude Course Direction KTS MPH feet Rate Location/Type
10:06AM 42.0333 -87.9167 90° East 227 261 2,600  Level Chicago TRACON
10:07AM 42.0500 -87.8333 75° East 276 318 4,900 2,460 Climbing Chicago TRACON
10:09AM 42.0636 -87.6233 85° East 290 334 10,200 2,580 Climbing Chicago Center
10:10AM 42.0342 -87.4906 107° East 307 353 13,100 2,460 Climbing Chicago Center
10:11AM 41.9343 -87.1461 96° East  Level FlightAware Approximate
10:11AM 42.0117 -87.3800 105° East 308 354 15,300  Level Chicago Center
10:12AM 41.9333 -86.9951 90° East  Level FlightAware Approximate
10:12AM 41.9864 -87.2636 106° East 319 367 17,400  Level Chicago Center
10:13AM 41.9614 -87.1442 106° East 328 377 19,000 1,620 Climbing Chicago Center
10:15AM 41.9461 -87.0172 99° East 340 391 20,800 1,620 Climbing Chicago Center
10:16AM 41.9469 -86.8822 89° East 357 411 22,400 1,740 Climbing Chicago Center
10:17AM 41.9492 -86.7197 89° East 363 418 24,400 1,740 Climbing Chicago Center
10:18AM 41.9514 -86.5739 89° East 374 430 26,000 1,020 Climbing Chicago Center
10:19AM 41.9511 -86.4256 90° East 391 450 26,600 480 Climbing Chicago Center
10:20AM 41.9542 -86.2647 88° East 424 488 27,100 540 Climbing Chicago Center
10:21AM 41.9447 -86.0958 94° East 445 512 27,800 720 Climbing Chicago Center
10:22AM 41.9289 -85.9217 97° East 463 533 28,700 840 Climbing Chicago Center
10:23AM 41.9119 -85.7469 97° East 470 541 29,600 780 Climbing Chicago Center
10:24AM 41.8961 -85.5700 97° East 473 544 30,400 900 Climbing Chicago Center
10:25AM 41.8756 -85.3542 97° East 477 549 31,500 960 Climbing Chicago Center
10:26AM 41.8572 -85.1761 98° East 476 548 32,500 960 Climbing Chicago Center
10:27AM 41.8397 -85.0011 98° East 473 544 33,600 960 Climbing Chicago Center
10:28AM 41.8200 -84.8269 99° East 474 545 34,600 960 Climbing Chicago Center
10:29AM 41.8028 -84.6575 98° East 462 532 35,700 1,020 Climbing Chicago Center
10:30AM 41.7794 -84.5264 103° East 454 522 36,600 900 Climbing Cleveland Center
10:31AM 41.7453 -84.3683 106° East 446 513 37,400 660 Climbing Cleveland Center
10:32AM 41.7092 -84.1967 106° East 441 507 38,000 540 Climbing Cleveland Center
10:33AM 41.6764 -84.0417 106° East 435 501 38,500 480 Climbing Cleveland Center
10:34AM 41.6436 -83.8817 105° East 435 501 39,000 240 Climbing Cleveland Center
10:35AM 41.6125 -83.7244 105° East 440 506 39,000  Level Cleveland Center
10:36AM 41.5772 -83.5644 106° East 440 506 39,000  Level Cleveland Center
10:37AM 41.5439 -83.3992 105° East 445 512 39,000  Level Cleveland Center
10:38AM 41.5103 -83.2369 105° East 445 512 39,000  Level Cleveland Center
10:39AM 41.4803 -83.0886 105° East 453 521 39,000  Level Cleveland Center
10:40AM 41.4439 -82.9294 107° East 453 521 39,000  Level Cleveland Center
10:41AM 41.4075 -82.7619 106° East 458 527 39,000  Level Cleveland Center
10:42AM 41.3731 -82.6003 106° East 458 527 39,000  Level Cleveland Center
10:43AM 41.3383 -82.4333 105° East 463 533 39,000  Level Cleveland Center
10:44AM 41.3014 -82.2719 107° East 455 524 39,000  Level Cleveland Center
10:45AM 41.2639 -82.1108 107° East 460 529 39,000  Level Cleveland Center
10:46AM 41.2244 -81.9331 106° East 460 529 39,000  Level Cleveland Center
10:47AM 41.1886 -81.7778 107° East 470 541 39,000  Level Cleveland Center
10:48AM 41.1486 -81.6089 107° East 475 547 39,000  Level Cleveland Center
10:49AM 41.1144 -81.4431 105° East 475 547 39,000  Level Cleveland Center
10:50AM 41.0761 -81.2772 107° East 475 547 39,000  Level Cleveland Center
10:51AM 41.0375 -81.1117 107° East 475 547 39,000  Level Cleveland Center
10:52AM 40.9942 -80.9269 107° East 480 552 39,000  Level Cleveland Center
10:53AM 40.9531 -80.7564 108° East 480 552 39,000  Level Cleveland Center
10:54AM 40.9136 -80.5914 108° East 475 547 39,000  Level Cleveland Center
10:55AM 40.8739 -80.4183 107° East 480 552 39,000  Level Cleveland Center
10:56AM 40.8358 -80.2703 109° East 480 552 39,000  Level Cleveland Center
10:57AM 40.7875 -80.1086 112° Southeast 480 552 39,000  Level Cleveland Center
10:58AM 40.7200 -79.9311 117° Southeast 480 552 39,000  Level Cleveland Center
10:59AM 40.6625 -79.7728 116° Southeast 480 552 39,000  Level Cleveland Center
11:00AM 40.6031 -79.6122 116° Southeast 485 558 39,000  Level Cleveland Center
11:01AM 40.5472 -79.4519 115° Southeast 485 558 39,000 -600 Level Cleveland Center
11:03AM 40.5036 -79.0894 99° East 490 564 37,200 -1,320 Descending Cleveland Center
11:04AM 40.4864 -78.9042 97° East 501 577 35,100 -2,160 Descending Cleveland Center
11:05AM 40.4708 -78.7161 96° East 506 582 32,900 -2,160 Descending Cleveland Center
11:06AM 40.4533 -78.5394 97° East 501 577 30,800 -2,100 Descending Cleveland Center
11:07AM 40.4375 -78.3625 97° East 495 570 28,800 -1,800 Descending Cleveland Center
11:09AM 40.3986 -77.9667 97° East 472 543 25,000 -1,200 Descending New York Center
11:10AM 40.3811 -77.8067 98° East 458 527 25,000 -480 Level New York Center
11:11AM 40.3572 -77.6489 101° East 451 519 24,100 -1,020 Descending New York Center
11:12AM 40.3350 -77.5242 103° East 446 513 23,000 -1,380 Descending New York Center
11:13AM 40.3014 -77.3439 104° East 432 497 21,400 -1,500 Descending New York Center
11:14AM 40.2797 -77.2111 102° East 418 481 20,100 -1,380 Descending New York Center
11:15AM 40.2558 -77.0703 102° East 404 465 18,700 -1,320 Descending New York Center
11:16AM 40.2308 -76.9156 102° East 392 451 17,500 -900 Descending New York Center
11:17AM 40.2064 -76.7803 103° East 392 451 17,000 -300 Descending New York Center
11:18AM 40.1836 -76.6533 103° East 392 451 17,000  Level New York Center
11:19AM 40.1592 -76.5128 103° East 386 444 17,000 -1,020 Level New York Center
11:20AM 40.1331 -76.3639 103° East 386 444 15,000 -2,160 Descending New York Center
11:21AM 40.1161 -76.2347 100° East 373 429 12,700 -1,680 Descending New York Center
11:22AM 40.1086 -76.1256 95° East 349 402 11,700 -1,320 Descending New York Center
11:23AM 40.1011 -76.0139 95° East 321 369 10,100 -1,800 Descending New York Center
11:24AM 40.0917 -75.8964 96° East 301 346 8,100 -1,800 Descending New York Center
11:25AM 40.0833 -75.8036 97° East 293 337 6,600 -1,080 Descending New York Center
11:26AM 40.0775 -75.6919 94° East 288 331 6,000 -300 Descending New York Center
11:27AM 40.0731 -75.6019 94° East 283 326 6,000  Level New York Center
11:28AM 40.0669 -75.4906 94° East 278 320 6,000  Level New York Center
11:29AM 40.0625 -75.3953 93° East 278 320 6,000  Level New York Center
11:30AM 40.0667 -75.3167 86° East 286 329 6,000  Level Philadelphia TRACON
11:31AM 40.0500 -75.2167 102° East 269 310 6,000  Level Philadelphia TRACON
11:32AM 40.0333 -75.1500 108° East 215 247 6,100 -600 Climbing Philadelphia TRACON
11:33AM 40.0167 -75.0833 108° East 185 213 4,900 -1,380 Descending Philadelphia TRACON
11:34AM 40.0000 -75.0167 108° East 198 228 3,400 -960 Descending Philadelphia TRACON
11:35AM 39.9500 -74.9833 153° Southeast 185 213 3,000 -240 Descending Philadelphia TRACON
11:36AM 39.9167 -75.0000 201° Southwest 173 199 3,000 -180 Level Philadelphia TRACON
11:37AM 39.9000 -75.0667 252° West 169 194 2,700 -660 Descending Philadelphia TRACON
11:38AM 39.9000 -75.1167 270° West 164 189 1,700 -900 Descending Philadelphia TRACON
11:39AM 39.8833 -75.1667 247° West 131 151 1,000 -720 Descending Philadelphia TRACON
11:40AM 39.8833 -75.2167 270° West 131 151 300 -720 Descending Philadelphia TRACON
11:42AM 39.8667 -75.2333 247° West  Level FlightAware Approximate